KCKN/CKN METAR and TAF weather

Enter ICAO airport designator
Station Type Date Time Source
KCKN METAR 2018/12/13 15:15 UTC NOAA

KCKN 131515Z AUTO 29007KT 10SM CLR M02/M03 A2993 RMK AO2


Station Type Date Time Source
KCKN Decoded METAR 2018/12/13 15:15 UTC NOAA

Crookston Municipal Field, MN, United States (KCKN) 47-51N 096-37W
Dec 13, 2018 - 10:15 AM EST / 2018.12.13 1515 UTC
Wind: from the WNW (290 degrees) at 8 MPH (7 KT):0
Visibility: 10 mile(s):0
Sky conditions: clear
Temperature: 28 F (-2 C)
Windchill: 19 F (-7 C):1
Dew Point: 26 F (-3 C)
Relative Humidity: 92%
Pressure (altimeter): 29.93 in. Hg (1013 hPa)
ob: KCKN 131515Z AUTO 29007KT 10SM CLR M02/M03 A2993 RMK AO2
cycle: 15

Station Type Date Time Source
KCKN TAF UTC NOAA

Error!


Example: see airport list